Prestonpans, United Kingdom
Current Conditions -  °F | °C
As of 7:50 PM on Thursday 23 Oct 2014 (Local Time) from EGPH Reporting Station
Scattered Clouds Scattered Clouds  
Wind Chill: 57°   Ceiling: Unl
Heat Index: 57°   Visibility: 6mi
Dew Point: 52°   Wind: 15mph
Humidity: 82%   Direction: 220°SW
Pressure: 29.68"   Gusts: NA
Location:  55.96°N, 2.98°W
Report Text: EGPH 231850Z 22013KT 9999 FEW016 SCT035 14/11 Q1005
Loading
Personal Weather Stations






























Interactive Weather Map
Tropical Storm Tracking
New forecast layout! Learn more

10-Day Weather Forecast

Advertisements
Track Severe Weather on mobile